sensor_id;sensor_type;location;lat;lon;timestamp;P1;durP1;ratioP1;P2;durP2;ratioP2
45792;SDS011;31495;42.740;22.908;2022-11-03T00:00:04;13.05;;;4.28;;
45792;SDS011;31495;42.740;22.908;2022-11-03T00:01:03;8.35;;;3.70;;
45792;SDS011;31495;42.740;22.908;2022-11-03T00:02:03;6.07;;;2.97;;
45792;SDS011;31495;42.740;22.908;2022-11-03T00:03:02;13.25;;;4.35;;
45792;SDS011;31495;42.740;22.908;2022-11-03T00:04:02;10.25;;;3.42;;
45792;SDS011;31495;42.740;22.908;2022-11-03T00:05:06;8.68;;;3.50;;
45792;SDS011;31495;42.740;22.908;2022-11-03T00:06:25;7.47;;;3.13;;
45792;SDS011;31495;42.740;22.908;2022-11-03T00:07:25;14.55;;;3.72;;
45792;SDS011;31495;42.740;22.908;2022-11-03T00:08:24;7.57;;;3.38;;
45792;SDS011;31495;42.740;22.908;2022-11-03T00:09:23;9.00;;;3.78;;
45792;SDS011;31495;42.740;22.908;2022-11-03T00:10:24;8.05;;;3.28;;
45792;SDS011;31495;42.740;22.908;2022-11-03T00:11:24;8.70;;;3.20;;
45792;SDS011;31495;42.740;22.908;2022-11-03T00:12:24;8.80;;;3.50;;
45792;SDS011;31495;42.740;22.908;2022-11-03T00:13:23;13.40;;;3.95;;
45792;SDS011;31495;42.740;22.908;2022-11-03T00:14:22;9.57;;;3.85;;
45792;SDS011;31495;42.740;22.908;2022-11-03T00:15:22;8.10;;;3.63;;
45792;SDS011;31495;42.740;22.908;2022-11-03T00:16:21;10.85;;;3.67;;
45792;SDS011;31495;42.740;22.908;2022-11-03T00:17:21;10.02;;;3.35;;
45792;SDS011;31495;42.740;22.908;2022-11-03T00:18:20;12.25;;;3.92;;
45792;SDS011;31495;42.740;22.908;2022-11-03T00:19:19;12.75;;;3.67;;
45792;SDS011;31495;42.740;22.908;2022-11-03T00:20:19;12.52;;;3.97;;
45792;SDS011;31495;42.740;22.908;2022-11-03T00:21:18;7.50;;;3.30;;
45792;SDS011;31495;42.740;22.908;2022-11-03T00:22:18;6.93;;;3.28;;
45792;SDS011;31495;42.740;22.908;2022-11-03T00:23:18;8.43;;;3.42;;
45792;SDS011;31495;42.740;22.908;2022-11-03T00:24:17;10.38;;;4.05;;
45792;SDS011;31495;42.740;22.908;2022-11-03T00:25:17;12.10;;;4.22;;
45792;SDS011;31495;42.740;22.908;2022-11-03T00:26:17;7.05;;;3.17;;
45792;SDS011;31495;42.740;22.908;2022-11-03T00:27:21;8.38;;;3.10;;
45792;SDS011;31495;42.740;22.908;2022-11-03T00:28:21;6.25;;;3.22;;
45792;SDS011;31495;42.740;22.908;2022-11-03T00:29:20;8.00;;;4.13;;
45792;SDS011;31495;42.740;22.908;2022-11-03T00:30:19;13.35;;;4.15;;
45792;SDS011;31495;42.740;22.908;2022-11-03T00:31:20;7.25;;;3.38;;
45792;SDS011;31495;42.740;22.908;2022-11-03T00:32:20;11.32;;;4.13;;
45792;SDS011;31495;42.740;22.908;2022-11-03T00:33:20;8.77;;;4.05;;
45792;SDS011;31495;42.740;22.908;2022-11-03T00:34:25;8.50;;;3.53;;
45792;SDS011;31495;42.740;22.908;2022-11-03T00:35:24;9.85;;;3.60;;
45792;SDS011;31495;42.740;22.908;2022-11-03T00:36:25;10.10;;;3.45;;
45792;SDS011;31495;42.740;22.908;2022-11-03T00:37:29;11.98;;;3.88;;
45792;SDS011;31495;42.740;22.908;2022-11-03T00:38:28;8.20;;;3.75;;
45792;SDS011;31495;42.740;22.908;2022-11-03T00:39:28;13.75;;;4.60;;
45792;SDS011;31495;42.740;22.908;2022-11-03T00:40:27;9.57;;;4.53;;
45792;SDS011;31495;42.740;22.908;2022-11-03T00:41:26;11.68;;;5.03;;
45792;SDS011;31495;42.740;22.908;2022-11-03T00:42:26;8.35;;;3.10;;
45792;SDS011;31495;42.740;22.908;2022-11-03T00:43:26;7.70;;;3.20;;
45792;SDS011;31495;42.740;22.908;2022-11-03T00:44:27;6.95;;;2.92;;
45792;SDS011;31495;42.740;22.908;2022-11-03T00:45:26;9.80;;;3.65;;
45792;SDS011;31495;42.740;22.908;2022-11-03T00:46:26;10.18;;;4.40;;
45792;SDS011;31495;42.740;22.908;2022-11-03T00:47:26;9.70;;;3.80;;
45792;SDS011;31495;42.740;22.908;2022-11-03T00:48:25;13.63;;;5.00;;
45792;SDS011;31495;42.740;22.908;2022-11-03T00:49:28;9.77;;;4.55;;
45792;SDS011;31495;42.740;22.908;2022-11-03T00:50:27;13.05;;;4.00;;
45792;SDS011;31495;42.740;22.908;2022-11-03T00:51:27;8.48;;;4.20;;
45792;SDS011;31495;42.740;22.908;2022-11-03T00:52:32;9.55;;;3.55;;
45792;SDS011;31495;42.740;22.908;2022-11-03T00:53:32;7.28;;;3.72;;
45792;SDS011;31495;42.740;22.908;2022-11-03T00:54:32;12.80;;;3.47;;
45792;SDS011;31495;42.740;22.908;2022-11-03T00:55:32;11.00;;;4.13;;
45792;SDS011;31495;42.740;22.908;2022-11-03T00:56:32;13.20;;;4.40;;
45792;SDS011;31495;42.740;22.908;2022-11-03T00:57:37;9.45;;;4.22;;
45792;SDS011;31495;42.740;22.908;2022-11-03T00:58:36;7.72;;;3.83;;
45792;SDS011;31495;42.740;22.908;2022-11-03T00:59:35;10.82;;;4.65;;
45792;SDS011;31495;42.740;22.908;2022-11-03T01:00:35;9.88;;;4.05;;
45792;SDS011;31495;42.740;22.908;2022-11-03T01:01:39;9.20;;;3.92;;
45792;SDS011;31495;42.740;22.908;2022-11-03T01:02:40;8.68;;;3.90;;
45792;SDS011;31495;42.740;22.908;2022-11-03T01:03:40;12.25;;;4.03;;
45792;SDS011;31495;42.740;22.908;2022-11-03T01:05:01;10.27;;;4.95;;
45792;SDS011;31495;42.740;22.908;2022-11-03T01:06:19;10.13;;;4.53;;
45792;SDS011;31495;42.740;22.908;2022-11-03T01:07:37;11.30;;;4.55;;
45792;SDS011;31495;42.740;22.908;2022-11-03T01:08:37;12.18;;;4.55;;
45792;SDS011;31495;42.740;22.908;2022-11-03T01:09:38;8.27;;;3.92;;
45792;SDS011;31495;42.740;22.908;2022-11-03T01:10:39;11.02;;;4.40;;
45792;SDS011;31495;42.740;22.908;2022-11-03T01:13:09;11.18;;;3.67;;
45792;SDS011;31495;42.740;22.908;2022-11-03T01:14:09;8.73;;;3.85;;
45792;SDS011;31495;42.740;22.908;2022-11-03T01:15:10;10.50;;;3.72;;
45792;SDS011;31495;42.740;22.908;2022-11-03T01:16:10;11.75;;;4.03;;
45792;SDS011;31495;42.740;22.908;2022-11-03T01:17:19;10.93;;;4.03;;
45792;SDS011;31495;42.740;22.908;2022-11-03T01:18:23;9.73;;;3.60;;
45792;SDS011;31495;42.740;22.908;2022-11-03T01:19:23;12.50;;;3.80;;
45792;SDS011;31495;42.740;22.908;2022-11-03T01:20:23;11.02;;;4.75;;
45792;SDS011;31495;42.740;22.908;2022-11-03T01:21:22;7.60;;;3.88;;
45792;SDS011;31495;42.740;22.908;2022-11-03T01:22:22;11.50;;;4.45;;
45792;SDS011;31495;42.740;22.908;2022-11-03T01:23:22;9.13;;;3.55;;
45792;SDS011;31495;42.740;22.908;2022-11-03T01:24:22;13.75;;;4.43;;
45792;SDS011;31495;42.740;22.908;2022-11-03T01:25:21;9.90;;;4.07;;
45792;SDS011;31495;42.740;22.908;2022-11-03T01:26:21;9.77;;;4.40;;
45792;SDS011;31495;42.740;22.908;2022-11-03T01:27:20;9.38;;;3.63;;
45792;SDS011;31495;42.740;22.908;2022-11-03T01:28:22;9.98;;;3.88;;
45792;SDS011;31495;42.740;22.908;2022-11-03T01:29:23;11.32;;;3.95;;
45792;SDS011;31495;42.740;22.908;2022-11-03T01:30:22;7.45;;;3.75;;
45792;SDS011;31495;42.740;22.908;2022-11-03T01:31:22;7.90;;;3.50;;
45792;SDS011;31495;42.740;22.908;2022-11-03T01:32:23;7.70;;;3.50;;
45792;SDS011;31495;42.740;22.908;2022-11-03T01:33:22;8.85;;;4.10;;
45792;SDS011;31495;42.740;22.908;2022-11-03T01:34:21;6.30;;;3.35;;
45792;SDS011;31495;42.740;22.908;2022-11-03T01:35:21;10.32;;;4.22;;
45792;SDS011;31495;42.740;22.908;2022-11-03T01:36:20;13.20;;;4.75;;
45792;SDS011;31495;42.740;22.908;2022-11-03T01:37:20;16.55;;;5.28;;
45792;SDS011;31495;42.740;22.908;2022-11-03T01:38:19;9.02;;;4.43;;
45792;SDS011;31495;42.740;22.908;2022-11-03T01:39:19;8.65;;;4.45;;
45792;SDS011;31495;42.740;22.908;2022-11-03T01:40:18;16.15;;;4.40;;
45792;SDS011;31495;42.740;22.908;2022-11-03T01:41:19;11.05;;;4.68;;
45792;SDS011;31495;42.740;22.908;2022-11-03T01:42:20;8.70;;;4.40;;
45792;SDS011;31495;42.740;22.908;2022-11-03T01:43:20;8.73;;;4.10;;
45792;SDS011;31495;42.740;22.908;2022-11-03T01:44:23;8.02;;;4.15;;
45792;SDS011;31495;42.740;22.908;2022-11-03T01:45:26;13.07;;;4.28;;
45792;SDS011;31495;42.740;22.908;2022-11-03T01:46:26;14.32;;;4.95;;
45792;SDS011;31495;42.740;22.908;2022-11-03T01:47:28;10.23;;;4.20;;
45792;SDS011;31495;42.740;22.908;2022-11-03T01:48:31;16.23;;;4.05;;
45792;SDS011;31495;42.740;22.908;2022-11-03T01:49:34;8.55;;;3.40;;
45792;SDS011;31495;42.740;22.908;2022-11-03T01:50:41;10.02;;;3.53;;
45792;SDS011;31495;42.740;22.908;2022-11-03T01:51:43;9.05;;;3.85;;
45792;SDS011;31495;42.740;22.908;2022-11-03T01:52:51;7.65;;;4.10;;
45792;SDS011;31495;42.740;22.908;2022-11-03T01:53:56;9.98;;;4.40;;
45792;SDS011;31495;42.740;22.908;2022-11-03T01:54:59;8.00;;;3.83;;
45792;SDS011;31495;42.740;22.908;2022-11-03T01:56:01;11.02;;;4.93;;
45792;SDS011;31495;42.740;22.908;2022-11-03T01:57:02;10.00;;;4.32;;
45792;SDS011;31495;42.740;22.908;2022-11-03T01:59:14;9.52;;;4.47;;
45792;SDS011;31495;42.740;22.908;2022-11-03T02:00:14;8.05;;;3.78;;
45792;SDS011;31495;42.740;22.908;2022-11-03T02:01:14;13.95;;;5.18;;
45792;SDS011;31495;42.740;22.908;2022-11-03T02:02:15;10.88;;;4.28;;
45792;SDS011;31495;42.740;22.908;2022-11-03T02:03:14;8.07;;;4.35;;
45792;SDS011;31495;42.740;22.908;2022-11-03T02:04:16;11.45;;;4.97;;
45792;SDS011;31495;42.740;22.908;2022-11-03T02:05:21;8.88;;;4.97;;
45792;SDS011;31495;42.740;22.908;2022-11-03T02:06:24;12.55;;;4.95;;
45792;SDS011;31495;42.740;22.908;2022-11-03T02:07:28;12.70;;;4.97;;
45792;SDS011;31495;42.740;22.908;2022-11-03T02:08:40;14.25;;;5.38;;
45792;SDS011;31495;42.740;22.908;2022-11-03T02:09:45;17.42;;;5.57;;
45792;SDS011;31495;42.740;22.908;2022-11-03T02:10:46;11.30;;;4.28;;
45792;SDS011;31495;42.740;22.908;2022-11-03T02:11:47;9.25;;;4.18;;
45792;SDS011;31495;42.740;22.908;2022-11-03T02:13:14;10.75;;;4.72;;
45792;SDS011;31495;42.740;22.908;2022-11-03T02:14:17;11.48;;;4.70;;
45792;SDS011;31495;42.740;22.908;2022-11-03T02:15:16;9.32;;;5.05;;
45792;SDS011;31495;42.740;22.908;2022-11-03T02:16:18;11.35;;;5.18;;
45792;SDS011;31495;42.740;22.908;2022-11-03T02:17:20;14.32;;;4.40;;
45792;SDS011;31495;42.740;22.908;2022-11-03T02:18:23;11.38;;;5.45;;
45792;SDS011;31495;42.740;22.908;2022-11-03T02:20:29;11.90;;;5.82;;
45792;SDS011;31495;42.740;22.908;2022-11-03T02:24:12;10.05;;;5.55;;
45792;SDS011;31495;42.740;22.908;2022-11-03T02:26:49;15.10;;;6.43;;
45792;SDS011;31495;42.740;22.908;2022-11-03T02:27:53;11.40;;;4.88;;
45792;SDS011;31495;42.740;22.908;2022-11-03T02:28:52;12.73;;;4.82;;
45792;SDS011;31495;42.740;22.908;2022-11-03T02:29:52;13.18;;;5.07;;
45792;SDS011;31495;42.740;22.908;2022-11-03T02:32:32;9.75;;;4.60;;
45792;SDS011;31495;42.740;22.908;2022-11-03T02:34:47;12.38;;;4.93;;
45792;SDS011;31495;42.740;22.908;2022-11-03T02:37:33;9.70;;;4.38;;
45792;SDS011;31495;42.740;22.908;2022-11-03T02:38:37;12.20;;;4.60;;
45792;SDS011;31495;42.740;22.908;2022-11-03T02:39:44;10.02;;;4.78;;
45792;SDS011;31495;42.740;22.908;2022-11-03T02:40:47;8.98;;;4.18;;
45792;SDS011;31495;42.740;22.908;2022-11-03T02:41:52;15.23;;;5.65;;
45792;SDS011;31495;42.740;22.908;2022-11-03T02:42:55;10.50;;;4.80;;
45792;SDS011;31495;42.740;22.908;2022-11-03T02:43:56;6.72;;;4.13;;
45792;SDS011;31495;42.740;22.908;2022-11-03T02:45:00;14.05;;;5.28;;
45792;SDS011;31495;42.740;22.908;2022-11-03T02:46:02;14.85;;;6.68;;
45792;SDS011;31495;42.740;22.908;2022-11-03T02:47:08;9.48;;;5.22;;
45792;SDS011;31495;42.740;22.908;2022-11-03T02:48:10;11.63;;;5.38;;
45792;SDS011;31495;42.740;22.908;2022-11-03T02:49:14;13.40;;;5.57;;
45792;SDS011;31495;42.740;22.908;2022-11-03T02:50:13;10.68;;;5.68;;
45792;SDS011;31495;42.740;22.908;2022-11-03T02:51:13;11.48;;;5.38;;
45792;SDS011;31495;42.740;22.908;2022-11-03T02:53:32;10.18;;;4.90;;
45792;SDS011;31495;42.740;22.908;2022-11-03T02:54:38;13.45;;;5.53;;
45792;SDS011;31495;42.740;22.908;2022-11-03T02:56:00;13.65;;;5.22;;
45792;SDS011;31495;42.740;22.908;2022-11-03T02:57:11;16.15;;;5.43;;
45792;SDS011;31495;42.740;22.908;2022-11-03T02:59:29;15.68;;;5.50;;
45792;SDS011;31495;42.740;22.908;2022-11-03T03:00:53;12.90;;;5.88;;
45792;SDS011;31495;42.740;22.908;2022-11-03T03:02:02;11.15;;;5.35;;
45792;SDS011;31495;42.740;22.908;2022-11-03T03:04:20;11.00;;;5.55;;
45792;SDS011;31495;42.740;22.908;2022-11-03T03:05:25;10.27;;;5.57;;
45792;SDS011;31495;42.740;22.908;2022-11-03T03:06:29;13.00;;;6.03;;
45792;SDS011;31495;42.740;22.908;2022-11-03T03:07:37;13.32;;;5.68;;
45792;SDS011;31495;42.740;22.908;2022-11-03T03:08:43;9.85;;;5.47;;
45792;SDS011;31495;42.740;22.908;2022-11-03T03:09:48;16.63;;;5.90;;
45792;SDS011;31495;42.740;22.908;2022-11-03T03:10:57;17.55;;;7.32;;
45792;SDS011;31495;42.740;22.908;2022-11-03T03:11:58;13.90;;;6.47;;
45792;SDS011;31495;42.740;22.908;2022-11-03T03:13:01;19.60;;;7.30;;
45792;SDS011;31495;42.740;22.908;2022-11-03T03:18:15;13.85;;;4.88;;
45792;SDS011;31495;42.740;22.908;2022-11-03T03:19:21;14.10;;;5.47;;
45792;SDS011;31495;42.740;22.908;2022-11-03T03:20:38;16.73;;;6.07;;
45792;SDS011;31495;42.740;22.908;2022-11-03T03:21:58;16.80;;;6.35;;
45792;SDS011;31495;42.740;22.908;2022-11-03T03:23:06;18.55;;;8.00;;
45792;SDS011;31495;42.740;22.908;2022-11-03T03:24:24;16.55;;;6.53;;
45792;SDS011;31495;42.740;22.908;2022-11-03T03:25:33;13.05;;;5.50;;
45792;SDS011;31495;42.740;22.908;2022-11-03T03:26:41;10.27;;;4.90;;
45792;SDS011;31495;42.740;22.908;2022-11-03T03:27:46;12.80;;;5.25;;
45792;SDS011;31495;42.740;22.908;2022-11-03T03:28:50;13.70;;;5.03;;
45792;SDS011;31495;42.740;22.908;2022-11-03T03:30:03;11.60;;;4.80;;
45792;SDS011;31495;42.740;22.908;2022-11-03T03:31:06;10.03;;;5.23;;
45792;SDS011;31495;42.740;22.908;2022-11-03T03:32:09;10.57;;;5.40;;
45792;SDS011;31495;42.740;22.908;2022-11-03T03:33:09;7.68;;;4.63;;
45792;SDS011;31495;42.740;22.908;2022-11-03T03:34:11;10.00;;;5.22;;
45792;SDS011;31495;42.740;22.908;2022-11-03T03:35:14;13.45;;;5.57;;
45792;SDS011;31495;42.740;22.908;2022-11-03T03:36:18;17.20;;;7.50;;
45792;SDS011;31495;42.740;22.908;2022-11-03T03:37:19;22.50;;;7.60;;
45792;SDS011;31495;42.740;22.908;2022-11-03T03:38:22;16.33;;;7.03;;
45792;SDS011;31495;42.740;22.908;2022-11-03T03:39:26;16.08;;;7.20;;
45792;SDS011;31495;42.740;22.908;2022-11-03T03:40:31;15.45;;;5.82;;
45792;SDS011;31495;42.740;22.908;2022-11-03T03:41:34;11.90;;;6.07;;
45792;SDS011;31495;42.740;22.908;2022-11-03T03:42:35;11.52;;;6.47;;
45792;SDS011;31495;42.740;22.908;2022-11-03T03:43:36;12.27;;;6.00;;
45792;SDS011;31495;42.740;22.908;2022-11-03T03:44:36;14.75;;;6.03;;
45792;SDS011;31495;42.740;22.908;2022-11-03T03:45:37;15.30;;;6.25;;
45792;SDS011;31495;42.740;22.908;2022-11-03T03:46:39;10.45;;;5.35;;
45792;SDS011;31495;42.740;22.908;2022-11-03T03:47:42;12.68;;;6.88;;
45792;SDS011;31495;42.740;22.908;2022-11-03T03:48:42;17.08;;;8.13;;
45792;SDS011;31495;42.740;22.908;2022-11-03T03:49:42;14.32;;;6.60;;
45792;SDS011;31495;42.740;22.908;2022-11-03T03:50:41;14.50;;;8.57;;
45792;SDS011;31495;42.740;22.908;2022-11-03T03:51:44;16.65;;;7.57;;
45792;SDS011;31495;42.740;22.908;2022-11-03T03:52:47;15.15;;;7.47;;
45792;SDS011;31495;42.740;22.908;2022-11-03T03:53:48;21.42;;;8.95;;
45792;SDS011;31495;42.740;22.908;2022-11-03T03:54:50;19.75;;;10.20;;
45792;SDS011;31495;42.740;22.908;2022-11-03T03:55:50;26.33;;;11.55;;
45792;SDS011;31495;42.740;22.908;2022-11-03T03:57:56;21.35;;;9.57;;
45792;SDS011;31495;42.740;22.908;2022-11-03T03:58:55;17.13;;;8.50;;
45792;SDS011;31495;42.740;22.908;2022-11-03T03:59:55;18.77;;;8.50;;
45792;SDS011;31495;42.740;22.908;2022-11-03T04:00:54;15.60;;;8.57;;
45792;SDS011;31495;42.740;22.908;2022-11-03T04:01:54;17.45;;;7.82;;
45792;SDS011;31495;42.740;22.908;2022-11-03T04:02:55;17.52;;;7.35;;
45792;SDS011;31495;42.740;22.908;2022-11-03T04:03:56;17.40;;;6.80;;
45792;SDS011;31495;42.740;22.908;2022-11-03T04:04:55;16.73;;;6.45;;
45792;SDS011;31495;42.740;22.908;2022-11-03T04:05:56;11.20;;;6.68;;
45792;SDS011;31495;42.740;22.908;2022-11-03T04:06:56;13.25;;;5.75;;
45792;SDS011;31495;42.740;22.908;2022-11-03T04:08:15;12.85;;;5.90;;
45792;SDS011;31495;42.740;22.908;2022-11-03T04:09:15;13.77;;;6.93;;
45792;SDS011;31495;42.740;22.908;2022-11-03T04:10:16;16.83;;;7.32;;
45792;SDS011;31495;42.740;22.908;2022-11-03T04:11:17;11.13;;;6.57;;
45792;SDS011;31495;42.740;22.908;2022-11-03T04:12:35;16.67;;;6.63;;
45792;SDS011;31495;42.740;22.908;2022-11-03T04:13:53;16.20;;;6.68;;
45792;SDS011;31495;42.740;22.908;2022-11-03T04:15:12;17.70;;;7.10;;
45792;SDS011;31495;42.740;22.908;2022-11-03T04:16:30;16.15;;;7.97;;
45792;SDS011;31495;42.740;22.908;2022-11-03T04:17:48;17.23;;;6.43;;
45792;SDS011;31495;42.740;22.908;2022-11-03T04:19:10;14.93;;;6.78;;
45792;SDS011;31495;42.740;22.908;2022-11-03T04:20:28;15.38;;;6.43;;
45792;SDS011;31495;42.740;22.908;2022-11-03T04:21:47;15.27;;;7.68;;
45792;SDS011;31495;42.740;22.908;2022-11-03T04:23:05;14.30;;;6.68;;
45792;SDS011;31495;42.740;22.908;2022-11-03T04:24:05;16.10;;;7.20;;
45792;SDS011;31495;42.740;22.908;2022-11-03T04:25:04;18.30;;;6.72;;
45792;SDS011;31495;42.740;22.908;2022-11-03T04:26:05;13.60;;;7.05;;
45792;SDS011;31495;42.740;22.908;2022-11-03T04:28:34;15.63;;;7.25;;
45792;SDS011;31495;42.740;22.908;2022-11-03T04:29:34;18.58;;;7.75;;
45792;SDS011;31495;42.740;22.908;2022-11-03T04:30:34;16.88;;;7.95;;
45792;SDS011;31495;42.740;22.908;2022-11-03T04:31:34;16.02;;;6.80;;
45792;SDS011;31495;42.740;22.908;2022-11-03T04:32:34;19.80;;;8.25;;
45792;SDS011;31495;42.740;22.908;2022-11-03T04:33:35;15.63;;;6.85;;
45792;SDS011;31495;42.740;22.908;2022-11-03T04:34:35;19.88;;;8.40;;
45792;SDS011;31495;42.740;22.908;2022-11-03T04:35:34;15.15;;;7.82;;
45792;SDS011;31495;42.740;22.908;2022-11-03T04:36:34;14.82;;;6.70;;
45792;SDS011;31495;42.740;22.908;2022-11-03T04:37:34;15.70;;;7.97;;
45792;SDS011;31495;42.740;22.908;2022-11-03T04:38:33;19.08;;;8.35;;
45792;SDS011;31495;42.740;22.908;2022-11-03T04:39:32;14.75;;;7.78;;
45792;SDS011;31495;42.740;22.908;2022-11-03T04:40:32;15.80;;;7.93;;
45792;SDS011;31495;42.740;22.908;2022-11-03T04:41:32;18.27;;;7.57;;
45792;SDS011;31495;42.740;22.908;2022-11-03T04:42:31;13.10;;;7.57;;
45792;SDS011;31495;42.740;22.908;2022-11-03T04:43:33;15.68;;;7.85;;
45792;SDS011;31495;42.740;22.908;2022-11-03T04:44:35;19.38;;;8.70;;
45792;SDS011;31495;42.740;22.908;2022-11-03T04:45:34;19.17;;;11.73;;
45792;SDS011;31495;42.740;22.908;2022-11-03T04:46:35;18.13;;;10.57;;
45792;SDS011;31495;42.740;22.908;2022-11-03T04:47:35;24.98;;;10.93;;
45792;SDS011;31495;42.740;22.908;2022-11-03T04:48:35;22.25;;;9.23;;
45792;SDS011;31495;42.740;22.908;2022-11-03T04:49:35;18.00;;;8.48;;
45792;SDS011;31495;42.740;22.908;2022-11-03T04:50:34;21.38;;;9.65;;
45792;SDS011;31495;42.740;22.908;2022-11-03T04:51:33;20.40;;;10.05;;
45792;SDS011;31495;42.740;22.908;2022-11-03T04:52:33;34.25;;;17.17;;
45792;SDS011;31495;42.740;22.908;2022-11-03T04:53:32;28.85;;;14.10;;
45792;SDS011;31495;42.740;22.908;2022-11-03T04:54:32;30.40;;;14.00;;
45792;SDS011;31495;42.740;22.908;2022-11-03T04:55:31;25.67;;;11.07;;
45792;SDS011;31495;42.740;22.908;2022-11-03T04:56:31;24.17;;;11.05;;
45792;SDS011;31495;42.740;22.908;2022-11-03T04:57:31;19.75;;;9.45;;
45792;SDS011;31495;42.740;22.908;2022-11-03T04:58:31;14.60;;;7.90;;
45792;SDS011;31495;42.740;22.908;2022-11-03T04:59:33;16.38;;;8.80;;
45792;SDS011;31495;42.740;22.908;2022-11-03T05:00:32;17.50;;;8.43;;
45792;SDS011;31495;42.740;22.908;2022-11-03T05:01:32;16.45;;;8.55;;
45792;SDS011;31495;42.740;22.908;2022-11-03T05:02:31;12.20;;;7.30;;
45792;SDS011;31495;42.740;22.908;2022-11-03T05:03:32;15.25;;;7.68;;
45792;SDS011;31495;42.740;22.908;2022-11-03T05:04:32;14.35;;;7.63;;
45792;SDS011;31495;42.740;22.908;2022-11-03T05:05:32;17.83;;;8.35;;
45792;SDS011;31495;42.740;22.908;2022-11-03T05:06:31;16.10;;;7.55;;
45792;SDS011;31495;42.740;22.908;2022-11-03T05:07:32;15.45;;;8.45;;
45792;SDS011;31495;42.740;22.908;2022-11-03T05:08:34;14.88;;;9.05;;
45792;SDS011;31495;42.740;22.908;2022-11-03T05:09:33;19.88;;;8.07;;
45792;SDS011;31495;42.740;22.908;2022-11-03T05:10:33;15.80;;;8.50;;
45792;SDS011;31495;42.740;22.908;2022-11-03T05:11:34;16.58;;;8.05;;
45792;SDS011;31495;42.740;22.908;2022-11-03T05:12:35;14.90;;;7.60;;
45792;SDS011;31495;42.740;22.908;2022-11-03T05:13:35;14.95;;;7.75;;
45792;SDS011;31495;42.740;22.908;2022-11-03T05:14:34;18.58;;;7.63;;
45792;SDS011;31495;42.740;22.908;2022-11-03T05:15:36;14.85;;;8.05;;
45792;SDS011;31495;42.740;22.908;2022-11-03T05:16:41;17.40;;;7.97;;
45792;SDS011;31495;42.740;22.908;2022-11-03T05:17:41;15.98;;;8.02;;
45792;SDS011;31495;42.740;22.908;2022-11-03T05:18:42;13.18;;;7.30;;
45792;SDS011;31495;42.740;22.908;2022-11-03T05:19:43;16.92;;;8.23;;
45792;SDS011;31495;42.740;22.908;2022-11-03T05:20:48;18.52;;;7.95;;
45792;SDS011;31495;42.740;22.908;2022-11-03T05:21:51;16.38;;;7.18;;
45792;SDS011;31495;42.740;22.908;2022-11-03T05:22:53;16.00;;;8.32;;
45792;SDS011;31495;42.740;22.908;2022-11-03T05:23:54;15.73;;;7.60;;
45792;SDS011;31495;42.740;22.908;2022-11-03T05:25:02;18.08;;;8.70;;
45792;SDS011;31495;42.740;22.908;2022-11-03T05:26:06;18.77;;;8.23;;
45792;SDS011;31495;42.740;22.908;2022-11-03T05:27:17;15.65;;;7.80;;
45792;SDS011;31495;42.740;22.908;2022-11-03T05:28:20;20.27;;;9.15;;
45792;SDS011;31495;42.740;22.908;2022-11-03T05:30:35;21.05;;;8.85;;
45792;SDS011;31495;42.740;22.908;2022-11-03T05:31:34;19.52;;;9.13;;
45792;SDS011;31495;42.740;22.908;2022-11-03T05:32:35;21.48;;;9.75;;
45792;SDS011;31495;42.740;22.908;2022-11-03T05:33:34;20.67;;;9.18;;
45792;SDS011;31495;42.740;22.908;2022-11-03T05:34:35;18.17;;;8.07;;
45792;SDS011;31495;42.740;22.908;2022-11-03T05:35:39;14.05;;;8.88;;
45792;SDS011;31495;42.740;22.908;2022-11-03T05:36:38;16.85;;;8.95;;
45792;SDS011;31495;42.740;22.908;2022-11-03T05:37:38;23.50;;;9.40;;
45792;SDS011;31495;42.740;22.908;2022-11-03T05:38:37;19.75;;;8.68;;
45792;SDS011;31495;42.740;22.908;2022-11-03T05:39:37;22.98;;;12.00;;
45792;SDS011;31495;42.740;22.908;2022-11-03T05:40:41;26.15;;;13.85;;
45792;SDS011;31495;42.740;22.908;2022-11-03T05:41:41;23.50;;;11.43;;
45792;SDS011;31495;42.740;22.908;2022-11-03T05:42:41;16.90;;;9.65;;
45792;SDS011;31495;42.740;22.908;2022-11-03T05:43:43;21.17;;;9.98;;
45792;SDS011;31495;42.740;22.908;2022-11-03T05:44:42;23.65;;;11.00;;
45792;SDS011;31495;42.740;22.908;2022-11-03T05:45:43;19.67;;;10.70;;
45792;SDS011;31495;42.740;22.908;2022-11-03T05:46:43;21.38;;;11.85;;
45792;SDS011;31495;42.740;22.908;2022-11-03T05:47:43;27.30;;;11.02;;
45792;SDS011;31495;42.740;22.908;2022-11-03T05:48:42;18.48;;;10.10;;
45792;SDS011;31495;42.740;22.908;2022-11-03T05:49:45;19.33;;;9.90;;
45792;SDS011;31495;42.740;22.908;2022-11-03T05:50:49;22.05;;;9.75;;
45792;SDS011;31495;42.740;22.908;2022-11-03T05:51:48;17.60;;;9.30;;
45792;SDS011;31495;42.740;22.908;2022-11-03T05:52:49;23.98;;;11.70;;
45792;SDS011;31495;42.740;22.908;2022-11-03T05:53:55;27.95;;;12.93;;
45792;SDS011;31495;42.740;22.908;2022-11-03T05:54:59;24.20;;;12.02;;
45792;SDS011;31495;42.740;22.908;2022-11-03T05:56:01;21.67;;;11.80;;
45792;SDS011;31495;42.740;22.908;2022-11-03T05:57:07;21.15;;;11.27;;
45792;SDS011;31495;42.740;22.908;2022-11-03T05:58:34;21.77;;;12.23;;
45792;SDS011;31495;42.740;22.908;2022-11-03T05:59:36;30.52;;;13.35;;
45792;SDS011;31495;42.740;22.908;2022-11-03T06:00:36;27.23;;;12.40;;
45792;SDS011;31495;42.740;22.908;2022-11-03T06:01:38;25.38;;;12.52;;
45792;SDS011;31495;42.740;22.908;2022-11-03T06:02:39;27.08;;;12.23;;
45792;SDS011;31495;42.740;22.908;2022-11-03T06:03:41;27.85;;;13.15;;
45792;SDS011;31495;42.740;22.908;2022-11-03T06:04:40;30.73;;;14.77;;
45792;SDS011;31495;42.740;22.908;2022-11-03T06:05:40;27.23;;;14.75;;
45792;SDS011;31495;42.740;22.908;2022-11-03T06:06:39;43.38;;;21.58;;
45792;SDS011;31495;42.740;22.908;2022-11-03T06:07:39;37.08;;;18.65;;
45792;SDS011;31495;42.740;22.908;2022-11-03T06:08:39;40.15;;;18.05;;
45792;SDS011;31495;42.740;22.908;2022-11-03T06:09:38;44.75;;;16.75;;
45792;SDS011;31495;42.740;22.908;2022-11-03T06:10:39;31.85;;;14.82;;
45792;SDS011;31495;42.740;22.908;2022-11-03T06:11:43;30.35;;;14.50;;
45792;SDS011;31495;42.740;22.908;2022-11-03T06:12:43;28.98;;;14.27;;
45792;SDS011;31495;42.740;22.908;2022-11-03T06:13:42;33.17;;;14.25;;
45792;SDS011;31495;42.740;22.908;2022-11-03T06:14:42;23.50;;;13.20;;
45792;SDS011;31495;42.740;22.908;2022-11-03T06:15:42;42.53;;;15.68;;
45792;SDS011;31495;42.740;22.908;2022-11-03T06:16:54;66.80;;;33.65;;
45792;SDS011;31495;42.740;22.908;2022-11-03T06:18:58;50.95;;;27.00;;
45792;SDS011;31495;42.740;22.908;2022-11-03T06:19:59;35.47;;;19.05;;
45792;SDS011;31495;42.740;22.908;2022-11-03T06:21:06;35.90;;;17.83;;
45792;SDS011;31495;42.740;22.908;2022-11-03T06:22:19;28.38;;;15.07;;
45792;SDS011;31495;42.740;22.908;2022-11-03T06:23:27;29.52;;;13.27;;
45792;SDS011;31495;42.740;22.908;2022-11-03T06:24:30;26.42;;;12.60;;
45792;SDS011;31495;42.740;22.908;2022-11-03T06:25:32;27.38;;;13.75;;
45792;SDS011;31495;42.740;22.908;2022-11-03T06:26:34;28.33;;;13.32;;
45792;SDS011;31495;42.740;22.908;2022-11-03T06:27:34;28.15;;;14.98;;
45792;SDS011;31495;42.740;22.908;2022-11-03T06:28:34;29.88;;;15.10;;
45792;SDS011;31495;42.740;22.908;2022-11-03T06:29:37;31.40;;;15.45;;
45792;SDS011;31495;42.740;22.908;2022-11-03T06:30:38;29.02;;;14.95;;
45792;SDS011;31495;42.740;22.908;2022-11-03T06:31:39;36.60;;;15.00;;